createdAt,value
2022-09-10T00:00:40.704Z,16.31
2022-09-10T00:03:12.692Z,16.28
2022-09-10T00:05:49.096Z,16.26
2022-09-10T00:08:20.989Z,16.23
2022-09-10T00:10:52.644Z,16.17
2022-09-10T00:13:24.191Z,16.16
2022-09-10T00:15:55.759Z,16.12
2022-09-10T00:18:27.311Z,16.08
2022-09-10T00:21:02.368Z,16.06
2022-09-10T00:23:36.050Z,16.07
2022-09-10T00:26:28.085Z,16.07
2022-09-10T00:29:00.464Z,16.10
2022-09-10T00:31:34.000Z,16.05
2022-09-10T00:34:09.058Z,16.02
2022-09-10T00:36:43.229Z,15.98
2022-09-10T00:39:18.329Z,16.02
2022-09-10T00:41:54.826Z,16.02
2022-09-10T00:44:39.494Z,16.02
2022-09-10T00:47:19.048Z,16.03
2022-09-10T00:50:03.472Z,16.03
2022-09-10T00:52:39.543Z,16.02
2022-09-10T00:55:12.613Z,15.98
2022-09-10T00:57:47.654Z,15.93
2022-09-10T01:00:19.235Z,15.90
2022-09-10T01:02:55.008Z,15.88
2022-09-10T01:05:26.998Z,15.79
2022-09-10T01:07:58.796Z,15.67
2022-09-10T01:10:48.038Z,15.57
2022-09-10T01:13:25.460Z,15.59
2022-09-10T01:16:16.675Z,15.59
2022-09-10T01:19:35.792Z,15.60
2022-09-10T01:22:38.177Z,15.63
2022-09-10T01:25:23.252Z,15.63
2022-09-10T01:27:59.512Z,15.61
2022-09-10T01:30:41.508Z,15.61
2022-09-10T01:33:34.153Z,15.62
2022-09-10T01:36:15.749Z,15.55
2022-09-10T01:38:50.036Z,15.59
2022-09-10T01:41:25.955Z,15.60
2022-09-10T01:43:57.735Z,15.60
2022-09-10T01:46:39.652Z,15.60
2022-09-10T01:49:38.948Z,15.61
2022-09-10T01:52:48.168Z,15.55
2022-09-10T01:55:38.000Z,15.55
2022-09-10T01:58:12.834Z,15.51
2022-09-10T02:01:14.616Z,15.41
2022-09-10T02:03:50.570Z,15.37
2022-09-10T02:06:27.993Z,15.36
2022-09-10T02:09:01.761Z,15.36
2022-09-10T02:11:56.232Z,15.36
2022-09-10T02:14:55.611Z,15.33
2022-09-10T02:17:56.636Z,15.33
2022-09-10T02:20:30.402Z,15.34
2022-09-10T02:23:03.504Z,15.37
2022-09-10T02:25:38.494Z,15.40
2022-09-10T02:28:10.653Z,15.40
2022-09-10T02:30:42.284Z,15.40
2022-09-10T02:33:16.279Z,15.39
2022-09-10T02:35:50.541Z,15.38
2022-09-10T02:38:22.298Z,15.37
2022-09-10T02:40:55.665Z,15.38
2022-09-10T02:43:29.619Z,15.40
2022-09-10T02:46:08.865Z,15.40
2022-09-10T02:48:41.801Z,15.38
2022-09-10T02:51:14.005Z,15.36
2022-09-10T02:53:45.593Z,15.36
2022-09-10T02:56:19.696Z,15.38
2022-09-10T02:58:51.339Z,15.41
2022-09-10T03:01:24.300Z,15.44
2022-09-10T03:04:03.402Z,15.46
2022-09-10T03:06:36.825Z,15.52
2022-09-10T03:09:10.176Z,15.57
2022-09-10T03:11:41.843Z,15.59
2022-09-10T03:14:20.096Z,15.59
2022-09-10T03:16:52.666Z,15.57
2022-09-10T03:19:24.282Z,15.60
2022-09-10T03:21:59.836Z,15.61
2022-09-10T03:24:31.605Z,15.61
2022-09-10T03:27:03.381Z,15.61
2022-09-10T03:29:35.021Z,15.59
2022-09-10T03:32:06.725Z,15.57
2022-09-10T03:34:39.944Z,15.55
2022-09-10T03:37:15.377Z,15.54
2022-09-10T03:39:50.086Z,15.53
2022-09-10T03:42:21.561Z,15.52
2022-09-10T03:44:55.443Z,15.49
2022-09-10T03:47:27.271Z,15.52
2022-09-10T03:49:59.749Z,15.52
2022-09-10T03:52:31.411Z,15.50
2022-09-10T03:55:03.188Z,15.48
2022-09-10T03:57:34.767Z,15.47
2022-09-10T04:00:07.832Z,15.50
2022-09-10T04:02:46.885Z,15.55
2022-09-10T04:05:19.840Z,15.48
2022-09-10T04:07:51.663Z,15.44
2022-09-10T04:10:24.021Z,15.40
2022-09-10T04:12:55.749Z,15.37
2022-09-10T04:15:27.436Z,15.33
2022-09-10T04:17:59.317Z,15.35
2022-09-10T04:20:32.121Z,15.36
2022-09-10T04:23:11.953Z,15.38
2022-09-10T04:25:46.599Z,15.38
2022-09-10T04:28:18.212Z,15.37
2022-09-10T04:30:53.332Z,15.33
2022-09-10T04:33:28.049Z,15.35
2022-09-10T04:36:01.040Z,15.33
2022-09-10T04:38:33.852Z,15.28
2022-09-10T04:41:06.181Z,15.30
2022-09-10T04:43:38.365Z,15.34
2022-09-10T04:46:11.991Z,15.35
2022-09-10T04:48:47.530Z,15.31
2022-09-10T04:51:25.274Z,15.34
2022-09-10T04:53:59.422Z,15.30
2022-09-10T04:56:36.345Z,15.28
2022-09-10T04:59:11.237Z,15.28
2022-09-10T05:01:43.351Z,15.27
2022-09-10T05:04:17.900Z,15.22
2022-09-10T05:06:51.292Z,15.29
2022-09-10T05:09:23.164Z,15.30
2022-09-10T05:11:54.822Z,15.16
2022-09-10T05:14:26.933Z,15.09
2022-09-10T05:16:59.954Z,15.07
2022-09-10T05:19:34.118Z,15.13
2022-09-10T05:22:10.147Z,15.16
2022-09-10T05:24:43.483Z,15.20
2022-09-10T05:27:16.112Z,15.24
2022-09-10T05:29:48.175Z,15.39
2022-09-10T05:32:23.940Z,15.49
2022-09-10T05:34:55.541Z,15.57
2022-09-10T05:37:27.836Z,15.67
2022-09-10T05:39:59.914Z,15.79
2022-09-10T05:42:31.926Z,16.01
2022-09-10T05:45:03.890Z,16.21
2022-09-10T05:47:37.593Z,16.33
2022-09-10T05:50:11.493Z,16.40
2022-09-10T05:52:43.387Z,16.47
2022-09-10T05:55:16.017Z,16.55
2022-09-10T05:57:50.625Z,16.59
2022-09-10T06:00:25.520Z,16.70
2022-09-10T06:03:04.508Z,16.81
2022-09-10T06:05:51.355Z,16.92
2022-09-10T06:08:26.931Z,17.12
2022-09-10T06:11:02.599Z,17.26
2022-09-10T06:13:42.163Z,17.41
2022-09-10T06:16:17.086Z,17.55
2022-09-10T06:18:50.847Z,17.70
2022-09-10T06:21:28.400Z,17.90
2022-09-10T06:24:02.022Z,18.12
2022-09-10T06:26:37.495Z,18.49
2022-09-10T06:29:14.676Z,18.87
2022-09-10T06:31:47.721Z,19.54
2022-09-10T06:34:19.693Z,20.26
2022-09-10T06:36:51.720Z,21.02
2022-09-10T06:39:23.630Z,21.59
2022-09-10T06:42:00.024Z,22.12
2022-09-10T06:44:50.632Z,22.45
2022-09-10T06:50:50.181Z,23.78
2022-09-10T06:53:24.354Z,23.74
2022-09-10T06:55:56.756Z,23.80
2022-09-10T06:58:31.425Z,24.02
2022-09-10T07:01:14.761Z,24.33
2022-09-10T07:03:58.024Z,24.65
2022-09-10T07:06:34.744Z,24.86
2022-09-10T07:09:10.830Z,25.31
2022-09-10T07:12:14.524Z,25.46
2022-09-10T07:14:46.911Z,25.84
2022-09-10T07:17:20.310Z,25.68
2022-09-10T07:19:52.240Z,25.55
2022-09-10T07:22:45.996Z,25.40
2022-09-10T07:25:19.696Z,25.23
2022-09-10T07:28:03.756Z,25.21
2022-09-10T07:30:37.794Z,25.38
2022-09-10T07:33:11.155Z,25.50
2022-09-10T07:35:50.218Z,25.48
2022-09-10T07:38:24.371Z,25.42
2022-09-10T07:40:59.522Z,25.32
2022-09-10T07:43:31.568Z,25.21
2022-09-10T07:46:04.406Z,24.95
2022-09-10T07:48:37.328Z,24.59
2022-09-10T07:51:13.137Z,24.25
2022-09-10T07:53:50.667Z,23.91
2022-09-10T07:56:27.014Z,23.31
2022-09-10T07:58:58.652Z,23.16
2022-09-10T08:01:34.263Z,23.03
2022-09-10T08:04:07.632Z,23.00
2022-09-10T08:06:42.757Z,22.81
2022-09-10T08:09:14.912Z,22.64
2022-09-10T08:11:54.297Z,22.48
2022-09-10T08:14:28.154Z,22.21
2022-09-10T08:17:01.853Z,21.95
2022-09-10T08:19:34.120Z,21.98
2022-09-10T08:22:13.458Z,22.28
2022-09-10T08:24:51.056Z,23.02
2022-09-10T08:27:23.040Z,24.01
2022-09-10T08:29:54.738Z,24.73
2022-09-10T08:32:28.873Z,25.20
2022-09-10T08:35:04.899Z,25.11
2022-09-10T08:37:38.042Z,24.98
2022-09-10T08:40:13.308Z,25.01
2022-09-10T08:42:50.897Z,24.83
2022-09-10T08:45:31.737Z,24.87
2022-09-10T08:48:18.605Z,25.44
2022-09-10T08:51:03.655Z,25.40
2022-09-10T08:53:44.306Z,25.51
2022-09-10T08:56:24.385Z,25.67
2022-09-10T08:59:11.327Z,25.85
2022-09-10T09:02:37.872Z,25.53
2022-09-10T09:05:26.610Z,25.45
2022-09-10T09:08:04.289Z,25.44
2022-09-10T09:10:51.152Z,25.67
2022-09-10T09:13:32.109Z,25.68
2022-09-10T09:16:39.779Z,25.92
2022-09-10T09:19:36.545Z,26.06
2022-09-10T09:22:29.628Z,25.78
2022-09-10T09:25:27.637Z,25.76
2022-09-10T09:28:12.510Z,25.59
2022-09-10T09:30:49.694Z,25.37
2022-09-10T09:33:25.062Z,24.95
2022-09-10T09:36:01.921Z,24.45
2022-09-10T09:38:45.318Z,24.36
2022-09-10T09:41:31.168Z,24.28
2022-09-10T09:44:15.956Z,24.02
2022-09-10T09:46:49.357Z,23.86
2022-09-10T09:49:23.270Z,23.56
2022-09-10T09:51:55.129Z,23.30
2022-09-10T09:57:24.917Z,23.44
2022-09-10T09:59:56.696Z,23.42
2022-09-10T10:02:30.409Z,23.06
2022-09-10T10:05:01.998Z,22.58
2022-09-10T10:07:36.305Z,22.45
2022-09-10T10:10:08.300Z,22.46
2022-09-10T10:12:48.330Z,22.27
2022-09-10T10:15:41.904Z,21.97
2022-09-10T10:18:22.495Z,21.85
2022-09-10T10:21:17.271Z,21.96
2022-09-10T10:23:52.089Z,22.15
2022-09-10T10:26:32.130Z,22.45
2022-09-10T10:29:22.433Z,22.72
2022-09-10T10:31:56.104Z,23.01
2022-09-10T10:34:45.230Z,23.58
2022-09-10T10:37:53.691Z,24.24
2022-09-10T10:40:57.079Z,25.08
2022-09-10T10:43:52.584Z,25.61
2022-09-10T10:46:30.318Z,25.55
2022-09-10T10:49:19.934Z,25.44
2022-09-10T10:52:00.766Z,24.90
2022-09-10T10:54:51.366Z,24.57
2022-09-10T10:57:38.073Z,24.43
2022-09-10T11:00:20.946Z,24.32
2022-09-10T11:03:10.018Z,24.46
2022-09-10T11:05:52.464Z,24.53
2022-09-10T11:08:32.376Z,24.64
2022-09-10T11:11:36.297Z,24.71
2022-09-10T11:14:29.822Z,24.40
2022-09-10T11:17:12.279Z,24.09
2022-09-10T11:20:27.186Z,23.82
2022-09-10T11:23:12.526Z,23.86
2022-09-10T11:26:04.585Z,24.04
2022-09-10T11:29:03.524Z,24.24
2022-09-10T11:31:45.145Z,24.24
2022-09-10T11:34:42.767Z,23.92
2022-09-10T11:37:45.711Z,24.13
2022-09-10T11:40:31.145Z,24.14
2022-09-10T11:43:19.672Z,24.04
2022-09-10T11:46:06.290Z,24.04
2022-09-10T11:49:00.604Z,23.99
2022-09-10T11:51:41.700Z,23.84
2022-09-10T11:54:23.367Z,23.64
2022-09-10T11:57:39.870Z,23.48
2022-09-10T12:00:27.456Z,23.28
2022-09-10T12:03:23.428Z,23.44
2022-09-10T12:06:13.532Z,23.55
2022-09-10T12:09:01.097Z,23.30
2022-09-10T12:11:51.620Z,22.94
2022-09-10T12:14:23.291Z,22.68
2022-09-10T12:17:08.675Z,22.85
2022-09-10T12:19:56.559Z,22.85
2022-09-10T12:22:34.456Z,23.01
2022-09-10T12:25:28.358Z,23.06
2022-09-10T12:28:07.762Z,23.20
2022-09-10T12:30:42.546Z,23.51
2022-09-10T12:33:17.054Z,23.96
2022-09-10T12:35:53.211Z,24.21
2022-09-10T12:39:18.477Z,24.27
2022-09-10T12:41:56.010Z,24.11
2022-09-10T12:44:43.258Z,24.23
2022-09-10T12:47:17.543Z,24.09
2022-09-10T12:50:06.970Z,23.91
2022-09-10T12:53:08.925Z,23.73
2022-09-10T12:56:18.490Z,23.43
2022-09-10T12:59:12.465Z,23.25
2022-09-10T13:01:48.173Z,23.04
2022-09-10T13:04:32.879Z,23.03
2022-09-10T13:07:23.546Z,22.96
2022-09-10T13:10:22.114Z,22.89
2022-09-10T13:12:58.690Z,22.99
2022-09-10T13:15:35.666Z,22.94
2022-09-10T13:18:25.430Z,22.86
2022-09-10T13:20:59.189Z,22.83
2022-09-10T13:23:44.113Z,22.68
2022-09-10T13:26:48.428Z,22.60
2022-09-10T13:29:37.159Z,22.49
2022-09-10T13:32:20.345Z,22.54
2022-09-10T13:35:08.043Z,22.10
2022-09-10T13:38:07.509Z,22.10
2022-09-10T13:40:59.674Z,22.22
2022-09-10T13:44:04.906Z,22.26
2022-09-10T13:46:41.564Z,22.31
2022-09-10T13:49:35.836Z,22.17
2022-09-10T13:52:15.124Z,22.09
2022-09-10T13:54:54.986Z,22.12
2022-09-10T13:57:31.254Z,22.04
2022-09-10T14:00:24.635Z,21.87
2022-09-10T14:02:58.722Z,21.83
2022-09-10T14:05:33.842Z,21.76
2022-09-10T14:08:31.747Z,21.81
2022-09-10T14:11:07.062Z,21.95
2022-09-10T14:14:01.632Z,22.00
2022-09-10T14:16:44.633Z,21.91
2022-09-10T14:19:40.980Z,21.78
2022-09-10T14:22:22.542Z,21.60
2022-09-10T14:25:05.313Z,21.43
2022-09-10T14:27:45.073Z,21.24
2022-09-10T14:30:29.911Z,20.91
2022-09-10T14:33:32.301Z,20.49
2022-09-10T14:36:29.155Z,20.23
2022-09-10T14:39:15.572Z,20.02
2022-09-10T14:42:09.349Z,19.90
2022-09-10T14:44:42.578Z,19.92
2022-09-10T14:47:23.146Z,19.95
2022-09-10T14:50:16.156Z,20.01
2022-09-10T14:52:48.460Z,20.27
2022-09-10T14:55:20.335Z,20.51
2022-09-10T14:57:55.893Z,20.59
2022-09-10T15:00:28.232Z,20.70
2022-09-10T15:03:00.664Z,20.90
2022-09-10T15:05:33.417Z,21.16
2022-09-10T15:08:05.295Z,21.23
2022-09-10T15:10:39.453Z,21.16
2022-09-10T15:13:20.930Z,21.15
2022-09-10T15:15:58.739Z,21.22
2022-09-10T15:18:30.361Z,21.24
2022-09-10T15:21:05.920Z,21.18
2022-09-10T15:23:41.729Z,21.22
2022-09-10T15:26:16.143Z,21.18
2022-09-10T15:28:47.780Z,21.18
2022-09-10T15:31:19.476Z,21.29
2022-09-10T15:33:52.090Z,21.44
2022-09-10T15:36:28.308Z,21.44
2022-09-10T15:39:04.376Z,21.46
2022-09-10T15:41:43.657Z,21.53
2022-09-10T15:44:18.425Z,21.52
2022-09-10T15:46:51.072Z,21.51
2022-09-10T15:49:25.664Z,21.48
2022-09-10T15:51:57.305Z,21.44
2022-09-10T15:54:31.862Z,21.22
2022-09-10T15:57:07.995Z,21.12
2022-09-10T15:59:40.891Z,21.17
2022-09-10T16:02:15.281Z,21.06
2022-09-10T16:04:48.734Z,20.91
2022-09-10T16:07:24.445Z,20.94
2022-09-10T16:09:58.859Z,20.88
2022-09-10T16:12:31.204Z,20.86
2022-09-10T16:15:03.026Z,20.88
2022-09-10T16:17:34.578Z,20.73
2022-09-10T16:20:06.510Z,20.71
2022-09-10T16:22:38.043Z,20.70
2022-09-10T16:25:12.512Z,20.74
2022-09-10T16:27:45.624Z,20.73
2022-09-10T16:30:17.866Z,20.85
2022-09-10T16:32:49.445Z,20.93
2022-09-10T16:35:23.214Z,21.02
2022-09-10T16:37:55.938Z,21.04
2022-09-10T16:40:27.604Z,21.01
2022-09-10T16:42:59.518Z,20.95
2022-09-10T16:45:31.350Z,20.88
2022-09-10T16:48:05.367Z,20.79
2022-09-10T16:50:37.606Z,20.73
2022-09-10T16:53:12.076Z,20.72
2022-09-10T16:55:46.437Z,20.65
2022-09-10T16:58:18.040Z,20.56
2022-09-10T17:00:51.974Z,20.57
2022-09-10T17:03:24.150Z,20.55
2022-09-10T17:05:59.434Z,20.47
2022-09-10T17:08:31.101Z,20.38
2022-09-10T17:11:02.760Z,20.24
2022-09-10T17:13:36.014Z,20.21
2022-09-10T17:16:25.899Z,20.12
2022-09-10T17:19:01.924Z,20.04
2022-09-10T17:21:35.345Z,20.01
2022-09-10T17:24:09.709Z,19.94
2022-09-10T17:26:46.000Z,19.88
2022-09-10T17:29:20.505Z,19.83
2022-09-10T17:31:57.322Z,19.82
2022-09-10T17:34:30.220Z,19.75
2022-09-10T17:37:02.040Z,19.76
2022-09-10T17:39:33.652Z,19.77
2022-09-10T17:42:06.060Z,19.80
2022-09-10T17:44:37.575Z,19.82
2022-09-10T17:47:09.659Z,19.95
2022-09-10T17:49:44.992Z,19.96
2022-09-10T17:52:16.610Z,19.97
2022-09-10T17:54:48.314Z,19.89
2022-09-10T17:57:21.206Z,19.88
2022-09-10T17:59:52.742Z,19.81
2022-09-10T18:02:24.575Z,19.73
2022-09-10T18:04:56.606Z,19.64
2022-09-10T18:07:28.210Z,19.59
2022-09-10T18:09:59.919Z,19.65
2022-09-10T18:12:31.524Z,19.67
2022-09-10T18:15:04.651Z,19.61
2022-09-10T18:17:36.392Z,19.63
2022-09-10T18:20:08.433Z,19.60
2022-09-10T18:22:43.328Z,19.60
2022-09-10T18:25:15.167Z,19.56
2022-09-10T18:27:48.592Z,19.63
2022-09-10T18:30:22.154Z,19.61
2022-09-10T18:32:53.799Z,19.57
2022-09-10T18:35:28.075Z,19.48
2022-09-10T18:38:08.768Z,19.40
2022-09-10T18:40:42.428Z,19.47
2022-09-10T18:43:15.417Z,19.29
2022-09-10T18:45:47.098Z,19.18
2022-09-10T18:48:18.762Z,19.17
2022-09-10T18:50:50.330Z,19.16
2022-09-10T18:53:25.233Z,19.10
2022-09-10T18:55:57.069Z,19.16
2022-09-10T18:58:28.632Z,19.15
2022-09-10T19:01:11.948Z,19.13
2022-09-10T19:03:46.395Z,19.08
2022-09-10T19:06:37.747Z,19.08
2022-09-10T19:09:36.522Z,19.12
2022-09-10T19:12:08.458Z,19.12
2022-09-10T19:14:39.982Z,19.06
2022-09-10T19:17:15.816Z,18.93
2022-09-10T19:19:47.591Z,18.75
2022-09-10T19:22:19.120Z,18.44
2022-09-10T19:24:56.158Z,18.34
2022-09-10T19:27:28.464Z,18.26
2022-09-10T19:30:00.041Z,18.12
2022-09-10T19:32:33.860Z,18.05
2022-09-10T19:35:05.688Z,17.96
2022-09-10T19:37:37.223Z,17.92
2022-09-10T19:40:11.895Z,17.83
2022-09-10T19:42:43.465Z,17.74
2022-09-10T19:45:15.311Z,17.63
2022-09-10T19:47:47.128Z,17.54
2022-09-10T19:50:23.273Z,17.44
2022-09-10T19:52:55.307Z,17.37
2022-09-10T19:55:26.989Z,17.27
2022-09-10T19:58:00.995Z,17.19
2022-09-10T20:00:46.398Z,17.20
2022-09-10T20:03:18.678Z,17.19
2022-09-10T20:05:50.279Z,17.22
2022-09-10T20:08:21.811Z,17.23
2022-09-10T20:10:55.745Z,17.21
2022-09-10T20:13:28.337Z,17.17
2022-09-10T20:16:04.015Z,17.19
2022-09-10T20:18:37.551Z,17.19
2022-09-10T20:21:25.509Z,17.21
2022-09-10T20:23:58.196Z,17.15
2022-09-10T20:26:39.271Z,17.11
2022-09-10T20:29:14.174Z,17.04
2022-09-10T20:31:47.016Z,17.01
2022-09-10T20:34:20.860Z,17.03
2022-09-10T20:36:52.549Z,17.07
2022-09-10T20:39:25.353Z,17.06
2022-09-10T20:41:57.823Z,17.11
2022-09-10T20:44:33.065Z,17.14
2022-09-10T20:47:04.876Z,17.14
2022-09-10T20:49:37.324Z,17.19
2022-09-10T20:52:08.905Z,17.25
2022-09-10T20:54:40.492Z,17.27
2022-09-10T20:57:18.951Z,17.29
2022-09-10T20:59:52.168Z,17.29
2022-09-10T21:02:24.112Z,17.26
2022-09-10T21:04:56.086Z,17.22
2022-09-10T21:07:30.766Z,17.22
2022-09-10T21:10:02.297Z,17.17
2022-09-10T21:12:36.302Z,17.13
2022-09-10T21:15:08.830Z,17.11
2022-09-10T21:17:40.385Z,17.12
2022-09-10T21:20:13.393Z,17.10
2022-09-10T21:22:48.942Z,17.12
2022-09-10T21:25:23.116Z,17.14
2022-09-10T21:27:54.989Z,17.15
2022-09-10T21:30:26.868Z,17.18
2022-09-10T21:32:58.532Z,17.20
2022-09-10T21:35:31.107Z,17.23
2022-09-10T21:38:02.653Z,17.19
2022-09-10T21:40:34.222Z,17.16
2022-09-10T21:43:06.372Z,17.13
2022-09-10T21:45:39.220Z,17.14
2022-09-10T21:48:10.762Z,17.19
2022-09-10T21:50:42.345Z,17.19
2022-09-10T21:53:20.733Z,17.21
2022-09-10T21:56:04.024Z,17.20
2022-09-10T21:58:37.052Z,17.22
2022-09-10T22:01:12.035Z,17.23
2022-09-10T22:03:45.993Z,17.15
2022-09-10T22:06:19.833Z,17.13
2022-09-10T22:09:00.997Z,17.16
2022-09-10T22:11:38.850Z,17.22
2022-09-10T22:14:16.046Z,17.20
2022-09-10T22:16:48.347Z,17.16
2022-09-10T22:19:24.111Z,17.16
2022-09-10T22:21:56.811Z,17.15
2022-09-10T22:24:29.458Z,17.13
2022-09-10T22:27:01.165Z,17.13
2022-09-10T22:29:32.740Z,17.18
2022-09-10T22:32:04.837Z,17.17
2022-09-10T22:34:37.676Z,17.14
2022-09-10T22:37:09.478Z,17.17
2022-09-10T22:39:41.159Z,17.17
2022-09-10T22:42:12.749Z,17.23
2022-09-10T22:44:44.596Z,17.24
2022-09-10T22:47:18.621Z,17.26
2022-09-10T22:49:50.877Z,17.22
2022-09-10T22:52:22.399Z,17.22
2022-09-10T22:54:59.016Z,17.20
2022-09-10T22:57:30.511Z,17.22
2022-09-10T23:00:03.969Z,17.12
2022-09-10T23:02:36.329Z,17.14
2022-09-10T23:05:08.440Z,17.16
2022-09-10T23:07:43.178Z,17.20
2022-09-10T23:10:14.848Z,17.17
2022-09-10T23:12:46.980Z,17.15
2022-09-10T23:15:18.585Z,17.14
2022-09-10T23:17:50.245Z,17.16
2022-09-10T23:20:21.804Z,17.18
2022-09-10T23:22:53.405Z,17.16
2022-09-10T23:25:25.138Z,17.00
2022-09-10T23:27:56.646Z,17.01
2022-09-10T23:30:29.605Z,17.02
2022-09-10T23:33:01.146Z,17.07
2022-09-10T23:35:36.373Z,17.06
2022-09-10T23:38:07.994Z,17.06
2022-09-10T23:40:41.648Z,17.09
2022-09-10T23:43:14.438Z,17.09
2022-09-10T23:45:45.968Z,17.09
2022-09-10T23:48:17.533Z,17.10
2022-09-10T23:50:53.153Z,17.11
2022-09-10T23:53:27.665Z,17.10
2022-09-10T23:56:01.529Z,17.09
2022-09-10T23:58:36.161Z,17.07
